Time;durP1;ratioP1;P1;durP2;ratioP2;P2;SDS_P1;SDS_P2;PMS_P1;PMS_P2;Temp;Humidity;BMP_temperature;BMP_pressure;BME280_temperature;BME280_humidity;BME280_pressure;Samples;Min_cycle;Max_cycle;Signal;HPM_P1;HPM_P2
2023/10/05 00:03:39;;;;;;;1199.57;531.20;;;13.30;99.90;;;;;;5078876;28;20040;-82
2023/10/05 00:06:14;;;;;;;1207.83;533.83;;;13.30;99.90;;;;;;5074219;28;20052;-83
2023/10/05 00:08:47;;;;;;;1199.50;527.92;;;13.20;99.90;;;;;;5073569;28;20045;-83
2023/10/05 00:11:24;;;;;;;1195.33;530.40;;;13.20;99.90;;;;;;5091455;28;20044;-83
2023/10/05 00:13:58;;;;;;;1192.80;531.83;;;13.20;99.90;;;;;;5093082;28;20092;-83
2023/10/05 00:16:36;;;;;;;1194.80;531.50;;;13.30;99.90;;;;;;5069696;28;20545;-83
2023/10/05 00:19:12;;;;;;;1228.13;546.67;;;13.20;99.90;;;;;;5073249;28;20051;-83
2023/10/05 00:24:18;;;;;;;1223.03;545.40;;;13.20;99.90;;;;;;5072833;28;20126;-83
2023/10/05 00:26:49;;;;;;;1230.87;549.90;;;13.20;99.90;;;;;;5080562;28;20048;-82
2023/10/05 00:31:44;;;;;;;1227.77;547.90;;;13.20;99.90;;;;;;5054778;28;20048;-83
2023/10/05 00:34:24;;;;;;;1193.47;530.30;;;13.20;99.90;;;;;;5069179;28;20047;-83
2023/10/05 00:36:57;;;;;;;1229.30;549.97;;;13.20;99.90;;;;;;5074077;28;20170;-83
2023/10/05 00:39:23;;;;;;;1222.40;544.20;;;13.20;99.90;;;;;;5075112;28;20388;-83
2023/10/05 00:41:57;;;;;;;1197.17;526.13;;;13.20;99.90;;;;;;5093121;28;20521;-83
2023/10/05 00:44:23;;;;;;;1208.07;528.87;;;13.10;99.90;;;;;;5092969;28;20388;-83
2023/10/05 00:46:49;;;;;;;1210.60;538.20;;;13.20;99.90;;;;;;5092256;28;20040;-83
2023/10/05 00:49:20;;;;;;;1249.50;548.43;;;13.10;99.90;;;;;;5090928;28;20452;-83
2023/10/05 00:52:00;;;;;;;1206.47;531.63;;;13.30;99.90;;;;;;5092662;28;20046;-83
2023/10/05 00:54:31;;;;;;;1204.53;529.00;;;13.10;99.90;;;;;;5073502;28;20044;-83
2023/10/05 00:57:03;;;;;;;1232.27;551.00;;;13.40;99.90;;;;;;5086886;28;20047;-83
2023/10/05 00:59:31;;;;;;;1230.83;547.60;;;13.40;99.90;;;;;;5073824;28;20449;-83
2023/10/05 01:04:34;;;;;;;1228.50;543.60;;;13.40;99.90;;;;;;5074512;28;20099;-82
2023/10/05 01:07:26;;;;;;;1229.37;545.13;;;13.10;99.90;;;;;;5076659;28;20560;-83
2023/10/05 01:09:56;;;;;;;1195.70;523.40;;;13.30;99.90;;;;;;5080519;28;20131;-83
2023/10/05 01:12:37;;;;;;;1197.53;517.47;;;13.10;99.90;;;;;;5058724;28;20041;-83
2023/10/05 01:15:07;;;;;;;1193.03;518.33;;;13.10;99.90;;;;;;5058321;28;20051;-83
2023/10/05 01:17:35;;;;;;;1189.20;524.77;;;13.10;99.90;;;;;;5076130;28;20429;-82
2023/10/05 01:23:01;;;;;;;1186.20;523.10;;;13.10;99.90;;;;;;4990338;28;20050;-83
2023/10/05 01:25:27;;;;;;;1216.93;541.80;;;13.10;99.90;;;;;;5014743;28;20406;-83
2023/10/05 01:27:54;;;;;;;1214.70;542.20;;;13.30;99.90;;;;;;5014375;28;20065;-83
2023/10/05 01:30:21;;;;;;;1179.80;519.03;;;13.10;99.90;;;;;;4989042;28;20034;-83
2023/10/05 01:32:49;;;;;;;1219.20;532.97;;;13.10;99.90;;;;;;4993992;28;20117;-83
2023/10/05 01:35:19;;;;;;;938.80;485.83;;;13.10;99.90;;;;;;4978406;28;20415;-83
2023/10/05 01:37:50;;;;;;;603.10;547.25;;;13.10;99.90;;;;;;4989975;28;20045;-83
2023/10/05 01:42:47;;;;;;;3.63;0.65;;;13.30;99.90;;;;;;4994229;28;20066;-83
2023/10/05 01:45:16;;;;;;;4.00;0.50;;;13.10;99.90;;;;;;4978403;28;20537;-83
2023/10/05 01:47:45;;;;;;;5.00;1.08;;;13.20;99.90;;;;;;4985941;28;20050;-83
2023/10/05 01:50:26;;;;;;;3.40;0.50;;;13.10;99.90;;;;;;4978233;28;20046;-83
2023/10/05 01:53:11;;;;;;;3.45;0.70;;;13.10;99.90;;;;;;4995609;28;20533;-83
2023/10/05 01:55:40;;;;;;;3.45;0.60;;;13.00;99.90;;;;;;4997684;28;20514;-83
2023/10/05 01:58:07;;;;;;;1.42;0.60;;;13.20;99.90;;;;;;5014056;28;20049;-83
2023/10/05 02:00:37;;;;;;;2.85;0.40;;;13.10;99.90;;;;;;5065882;28;20127;-83
2023/10/05 02:03:07;;;;;;;2.72;0.50;;;13.00;99.90;;;;;;5091932;28;20043;-83
2023/10/05 02:05:34;;;;;;;4.35;0.80;;;13.00;99.90;;;;;;5061470;28;20362;-83
2023/10/05 02:08:00;;;;;;;4.07;0.98;;;13.40;99.90;;;;;;5057728;28;20044;-83
2023/10/05 02:10:26;;;;;;;3.88;0.80;;;13.10;99.90;;;;;;5067241;28;20101;-83
2023/10/05 02:12:54;;;;;;;3.25;0.57;;;13.30;99.90;;;;;;5094195;28;20089;-83
2023/10/05 02:15:29;;;;;;;2.70;0.60;;;13.10;99.90;;;;;;5076095;28;20101;-83
2023/10/05 02:17:59;;;;;;;1.92;0.70;;;13.10;99.90;;;;;;5095840;28;20054;-83
2023/10/05 02:22:57;;;;;;;6.57;0.65;;;13.10;99.90;;;;;;5095217;28;20086;-82
2023/10/05 02:25:31;;;;;;;1.20;0.50;;;13.10;99.90;;;;;;5066089;28;20049;-83
2023/10/05 02:27:57;;;;;;;2.65;0.57;;;13.10;99.90;;;;;;5073119;28;20497;-83
2023/10/05 02:30:27;;;;;;;3.78;0.95;;;13.10;99.90;;;;;;5075182;28;20131;-83
2023/10/05 02:32:55;;;;;;;4.05;0.90;;;13.10;99.90;;;;;;5064312;28;20051;-83
2023/10/05 02:35:29;;;;;;;4.22;1.13;;;13.50;99.90;;;;;;5093393;28;20044;-83
2023/10/05 02:37:55;;;;;;;3.28;0.68;;;13.10;99.90;;;;;;5095445;28;20102;-82
2023/10/05 02:40:26;;;;;;;2.05;0.50;;;13.10;99.90;;;;;;5077542;28;20039;-83
2023/10/05 02:42:54;;;;;;;2.17;1.13;;;13.10;99.90;;;;;;5076100;28;20112;-83
2023/10/05 02:45:21;;;;;;;0.73;0.60;;;13.10;99.90;;;;;;5075637;28;20046;-82
2023/10/05 02:47:48;;;;;;;3.33;1.17;;;13.10;99.90;;;;;;5076576;28;20082;-82
2023/10/05 02:50:14;;;;;;;7.85;7.18;;;13.10;99.90;;;;;;5095149;28;20114;-83
2023/10/05 02:52:40;;;;;;;2.45;2.05;;;13.10;99.90;;;;;;5095224;28;20123;-83
2023/10/05 02:55:07;;;;;;;3.25;2.45;;;13.10;99.90;;;;;;5075455;28;20085;-82
2023/10/05 02:57:33;;;;;;;7.85;7.43;;;13.10;99.90;;;;;;5094255;28;20039;-82
2023/10/05 02:59:59;;;;;;;4.53;4.22;;;13.40;99.90;;;;;;5094496;28;20053;-83
2023/10/05 03:02:25;;;;;;;12.93;11.80;;;13.10;99.90;;;;;;5094189;28;20143;-83
2023/10/05 03:04:58;;;;;;;251.55;234.57;;;13.00;99.90;;;;;;5094886;28;20040;-83
2023/10/05 03:07:27;;;;;;;136.93;127.55;;;13.10;99.90;;;;;;5076324;28;20166;-83
2023/10/05 03:09:58;;;;;;;162.10;151.07;;;13.10;99.90;;;;;;5076727;28;20063;-83
2023/10/05 03:12:23;;;;;;;177.40;168.18;;;13.30;99.90;;;;;;5076468;28;20141;-83
2023/10/05 03:14:54;;;;;;;220.98;208.18;;;12.90;99.90;;;;;;5093618;28;20127;-83
2023/10/05 03:17:21;;;;;;;275.30;257.77;;;13.20;99.90;;;;;;5066708;28;20036;-83
2023/10/05 03:19:48;;;;;;;394.65;353.52;;;13.20;99.90;;;;;;5056287;28;20542;-83
2023/10/05 03:22:14;;;;;;;346.92;317.98;;;13.30;99.90;;;;;;5074126;28;20084;-83
2023/10/05 03:24:44;;;;;;;411.27;356.00;;;13.30;99.90;;;;;;5056201;28;20131;-83
2023/10/05 03:27:14;;;;;;;218.73;205.90;;;13.30;99.90;;;;;;5074836;28;20040;-83
2023/10/05 03:29:45;;;;;;;314.77;288.33;;;13.40;99.90;;;;;;5073913;28;20036;-83
2023/10/05 03:34:37;;;;;;;530.45;488.52;;;13.40;99.90;;;;;;5066475;28;20091;-83
2023/10/05 03:37:13;;;;;;;451.55;373.73;;;13.50;99.90;;;;;;5067558;28;20072;-83
2023/10/05 03:42:23;;;;;;;359.65;324.63;;;13.50;99.90;;;;;;5093967;28;19926;-84
2023/10/05 03:45:09;;;;;;;649.92;582.75;;;13.60;99.90;;;;;;5075811;28;20482;-83
2023/10/05 03:47:37;;;;;;;;;;;13.50;99.90;;;;;;5085806;28;20503;-83
2023/10/05 03:50:17;;;;;;;594.05;543.95;;;13.60;99.90;;;;;;5074551;28;19928;-83
2023/10/05 03:52:46;;;;;;;549.30;382.67;;;13.60;99.90;;;;;;5073466;28;20051;-83
2023/10/05 03:55:13;;;;;;;636.58;577.60;;;13.60;99.90;;;;;;5073560;28;20048;-83
2023/10/05 03:57:41;;;;;;;658.95;584.05;;;13.60;99.90;;;;;;5055785;28;20488;-83
2023/10/05 04:00:23;;;;;;;617.53;402.20;;;13.60;99.90;;;;;;5057248;28;20059;-83
2023/10/05 04:02:50;;;;;;;602.92;405.27;;;13.60;99.90;;;;;;5075373;28;20380;-83
2023/10/05 04:05:20;;;;;;;596.85;397.98;;;13.60;99.90;;;;;;5075770;28;20047;-83
2023/10/05 04:07:50;;;;;;;617.92;407.50;;;13.60;99.90;;;;;;5093449;28;20126;-83
2023/10/05 04:10:21;;;;;;;618.83;399.00;;;13.60;99.90;;;;;;5073133;28;20115;-83
2023/10/05 04:12:49;;;;;;;672.33;421.17;;;13.60;99.90;;;;;;5065676;28;20136;-83
2023/10/05 04:15:18;;;;;;;667.72;417.48;;;13.50;99.90;;;;;;5086018;28;20040;-84
2023/10/05 04:17:45;;;;;;;773.47;584.95;;;13.60;99.90;;;;;;5075336;28;20115;-83
2023/10/05 04:20:28;;;;;;;660.95;413.05;;;13.50;99.90;;;;;;5056053;28;20051;-83
2023/10/05 04:22:55;;;;;;;770.15;590.35;;;13.60;99.90;;;;;;5072846;28;20412;-83
2023/10/05 04:25:21;;;;;;;690.45;419.55;;;13.60;99.90;;;;;;5073209;28;20094;-84
2023/10/05 04:27:47;;;;;;;733.78;591.22;;;13.60;99.90;;;;;;5073060;28;20070;-83
2023/10/05 04:30:16;;;;;;;603.95;401.33;;;13.50;99.90;;;;;;5072708;28;20036;-83
2023/10/05 04:32:43;;;;;;;633.13;414.15;;;13.50;99.90;;;;;;5083683;28;20048;-84
2023/10/05 04:35:20;;;;;;;681.03;592.55;;;13.50;99.90;;;;;;5074520;28;20067;-84
2023/10/05 04:37:50;;;;;;;593.50;400.95;;;13.50;99.90;;;;;;5067785;28;20036;-83
2023/10/05 04:40:19;;;;;;;640.97;411.08;;;13.50;99.90;;;;;;5055748;28;20089;-83
2023/10/05 04:42:45;;;;;;;716.65;424.98;;;13.50;99.90;;;;;;5079522;28;20040;-82
2023/10/05 04:45:12;;;;;;;985.22;601.20;;;13.50;99.90;;;;;;5078883;28;20058;-83
2023/10/05 04:47:38;;;;;;;1003.20;604.90;;;13.70;99.90;;;;;;5093125;28;20120;-83
2023/10/05 04:50:06;;;;;;;1001.10;591.42;;;13.60;99.90;;;;;;5092023;28;20044;-83
2023/10/05 04:52:35;;;;;;;831.00;445.80;;;13.50;99.90;;;;;;5074927;28;20043;-83
2023/10/05 04:55:14;;;;;;;826.17;450.35;;;13.50;99.90;;;;;;5069284;28;20048;-83
2023/10/05 04:57:49;;;;;;;762.60;430.95;;;13.50;99.90;;;;;;5072963;28;20106;-82
2023/10/05 05:03:17;;;;;;;797.95;444.40;;;13.50;99.90;;;;;;5054604;28;20136;-82
2023/10/05 05:08:31;;;;;;;860.03;594.70;;;13.60;99.90;;;;;;5072452;28;20045;-82
2023/10/05 05:10:58;;;;;;;840.78;599.83;;;13.50;99.90;;;;;;5054355;28;20421;-82
2023/10/05 05:13:27;;;;;;;836.05;596.30;;;13.50;99.90;;;;;;5072663;28;20047;-82
2023/10/05 05:15:53;;;;;;;728.05;429.02;;;13.60;99.90;;;;;;5038738;28;20059;-82
2023/10/05 05:18:19;;;;;;;859.35;596.17;;;13.50;99.90;;;;;;5072282;28;20032;-82
2023/10/05 05:20:45;;;;;;;729.45;428.42;;;13.50;99.90;;;;;;5072404;28;20098;-82
2023/10/05 05:23:13;;;;;;;732.28;426.30;;;13.60;99.90;;;;;;5055121;28;20080;-82
2023/10/05 05:25:42;;;;;;;829.95;592.92;;;13.40;99.90;;;;;;5038143;28;20135;-82
2023/10/05 05:28:08;;;;;;;742.33;431.42;;;13.60;99.90;;;;;;5073592;28;20040;-82
2023/10/05 05:30:36;;;;;;;729.40;432.48;;;13.50;99.90;;;;;;5072433;28;20048;-83
2023/10/05 05:33:09;;;;;;;740.28;432.75;;;13.50;99.90;;;;;;5075810;28;20040;-82
2023/10/05 05:35:42;;;;;;;839.38;593.38;;;13.50;99.90;;;;;;5092351;28;20047;-82
2023/10/05 05:38:11;;;;;;;740.10;428.52;;;13.50;99.90;;;;;;5091037;28;20052;-82
2023/10/05 05:40:38;;;;;;;758.65;431.70;;;13.50;99.90;;;;;;5092641;28;20051;-82
2023/10/05 05:43:08;;;;;;;756.28;432.17;;;13.50;99.90;;;;;;5092559;28;20067;-82
2023/10/05 05:56:36;;;;;;;738.85;425.00;;;13.60;99.90;;;;;;5076156;28;20098;-83
2023/10/05 05:59:02;;;;;;;722.05;421.30;;;13.60;99.90;;;;;;5080821;28;20048;-83
2023/10/05 06:01:29;;;;;;;725.67;432.63;;;13.90;99.90;;;;;;5077550;28;20062;-82
2023/10/05 06:03:54;;;;;;;729.00;431.77;;;13.70;99.90;;;;;;5096213;28;20050;-81
2023/10/05 06:06:20;;;;;;;824.88;598.58;;;13.70;99.90;;;;;;5096589;28;20040;-82
2023/10/05 06:08:49;;;;;;;692.45;423.50;;;13.70;99.90;;;;;;5095525;28;20130;-81
2023/10/05 06:11:15;;;;;;;694.72;422.48;;;13.70;99.90;;;;;;5086369;28;20492;-82
2023/10/05 06:13:45;;;;;;;689.15;420.73;;;13.80;99.90;;;;;;5078089;28;20036;-82
2023/10/05 06:16:10;;;;;;;806.95;591.58;;;13.80;99.90;;;;;;5095971;28;20119;-82
2023/10/05 06:18:37;;;;;;;830.78;600.35;;;13.80;99.90;;;;;;5077604;28;20178;-82
2023/10/05 06:21:04;;;;;;;732.28;435.33;;;13.90;99.90;;;;;;5079230;28;20104;-82
2023/10/05 06:23:33;;;;;;;839.72;598.30;;;13.90;99.90;;;;;;5075712;28;20044;-82
2023/10/05 06:25:59;;;;;;;834.85;603.67;;;13.90;99.90;;;;;;5075756;28;20072;-82
2023/10/05 06:28:26;;;;;;;740.53;444.65;;;14.00;99.90;;;;;;5075288;28;20067;-82
2023/10/05 06:30:56;;;;;;;752.25;442.15;;;14.00;99.90;;;;;;5075031;28;20056;-82
2023/10/05 06:33:22;;;;;;;867.95;608.20;;;14.00;99.90;;;;;;5073867;28;20036;-81
2023/10/05 06:35:48;;;;;;;786.20;457.35;;;14.00;99.90;;;;;;5080233;28;20071;-83
2023/10/05 06:38:16;;;;;;;741.28;439.08;;;14.10;99.90;;;;;;5084782;28;20454;-81
2023/10/05 06:40:42;;;;;;;780.58;613.22;;;14.10;99.90;;;;;;5083890;28;20049;-82
2023/10/05 06:43:08;;;;;;;782.50;615.55;;;14.10;99.90;;;;;;5083919;28;20057;-82
2023/10/05 06:45:37;;;;;;;688.55;433.45;;;14.10;99.90;;;;;;5086234;28;20149;-82
2023/10/05 06:48:06;;;;;;;814.83;604.72;;;14.10;99.90;;;;;;5085001;28;20048;-82
2023/10/05 06:50:32;;;;;;;708.42;441.20;;;14.10;99.90;;;;;;5080169;28;20076;-82
2023/10/05 06:52:58;;;;;;;839.60;607.00;;;14.20;99.90;;;;;;5074636;28;20133;-82
2023/10/05 06:55:25;;;;;;;860.47;610.88;;;14.40;99.90;;;;;;5073257;28;20040;-83
2023/10/05 06:57:51;;;;;;;746.55;440.73;;;14.20;99.90;;;;;;5070409;28;20098;-81
2023/10/05 07:00:21;;;;;;;876.97;617.20;;;14.20;99.90;;;;;;5054821;28;20060;-79
2023/10/05 07:02:48;;;;;;;767.60;446.85;;;14.30;99.90;;;;;;5062084;28;20047;-81
2023/10/05 07:05:15;;;;;;;766.72;448.23;;;14.30;99.90;;;;;;5074409;28;20036;-82
2023/10/05 07:07:40;;;;;;;893.28;623.88;;;14.40;99.90;;;;;;5074746;28;20495;-81
2023/10/05 07:10:08;;;;;;;896.67;624.15;;;14.30;99.90;;;;;;5075259;28;20118;-85
2023/10/05 07:12:35;;;;;;;769.92;451.95;;;14.40;99.90;;;;;;5056694;28;20051;-82
2023/10/05 07:15:05;;;;;;;776.78;450.80;;;14.40;99.90;;;;;;5073810;28;20496;-82
2023/10/05 07:17:31;;;;;;;781.85;447.20;;;14.40;99.90;;;;;;5053128;28;20478;-82
2023/10/05 07:19:58;;;;;;;796.28;454.83;;;14.40;99.90;;;;;;5053061;28;20497;-82
2023/10/05 07:22:24;;;;;;;850.60;466.85;;;14.50;99.90;;;;;;5039636;28;20118;-81
2023/10/05 07:24:50;;;;;;;941.80;635.65;;;14.50;99.90;;;;;;5054161;28;20041;-82
2023/10/05 07:27:17;;;;;;;930.88;630.75;;;14.70;99.90;;;;;;5056162;28;20056;-82
2023/10/05 07:29:46;;;;;;;791.00;458.17;;;14.60;99.90;;;;;;5066546;28;20527;-82
2023/10/05 07:32:15;;;;;;;794.50;459.75;;;14.70;99.90;;;;;;5094092;28;20052;-82
2023/10/05 07:34:41;;;;;;;801.75;461.65;;;14.80;99.90;;;;;;5093622;28;20039;-82
2023/10/05 07:37:10;;;;;;;789.42;456.95;;;14.80;99.90;;;;;;5093888;28;20485;-82
2023/10/05 07:39:42;;;;;;;907.33;630.42;;;14.80;99.90;;;;;;5093967;28;20097;-82
2023/10/05 07:42:11;;;;;;;785.92;460.58;;;14.80;99.90;;;;;;5093759;28;20032;-82
2023/10/05 07:44:37;;;;;;;786.47;458.35;;;14.80;99.90;;;;;;5093648;28;20090;-83
2023/10/05 07:47:04;;;;;;;782.00;460.27;;;14.80;99.90;;;;;;5071885;28;20047;-82
2023/10/05 07:49:34;;;;;;;909.03;631.25;;;14.80;99.90;;;;;;5073437;28;20523;-82
2023/10/05 07:52:01;;;;;;;909.53;635.70;;;14.70;99.90;;;;;;5039459;28;20098;-83
2023/10/05 07:54:27;;;;;;;797.10;462.98;;;14.70;99.90;;;;;;5073365;28;20477;-82
2023/10/05 07:56:53;;;;;;;920.55;637.28;;;14.80;99.90;;;;;;5087780;28;20043;-82
2023/10/05 07:59:21;;;;;;;784.83;456.05;;;14.80;99.90;;;;;;5075910;28;20450;-82
2023/10/05 08:01:49;;;;;;;906.97;628.13;;;14.80;99.90;;;;;;5093423;28;20055;-83
2023/10/05 08:04:15;;;;;;;783.97;460.90;;;14.70;99.90;;;;;;5075416;28;20137;-82
2023/10/05 08:06:44;;;;;;;797.95;462.10;;;14.80;99.90;;;;;;5092969;28;20071;-82
2023/10/05 08:09:15;;;;;;;806.10;460.58;;;14.80;99.90;;;;;;5091819;28;20044;-82
2023/10/05 08:11:41;;;;;;;939.53;638.20;;;14.80;99.90;;;;;;5075433;28;20071;-82
2023/10/05 08:14:08;;;;;;;952.00;634.30;;;14.80;99.90;;;;;;5093474;28;20059;-82
2023/10/05 08:16:36;;;;;;;830.58;470.13;;;14.90;99.90;;;;;;5074510;28;20126;-82
2023/10/05 08:19:02;;;;;;;472.83;269.92;;;14.90;99.90;;;;;;5071027;28;20116;-82
2023/10/05 08:21:28;;;;;;;3.85;2.45;;;14.80;99.90;;;;;;5088846;28;20068;-82
2023/10/05 08:23:54;;;;;;;4.03;0.52;;;15.00;99.90;;;;;;5074422;28;20051;-82
2023/10/05 08:26:20;;;;;;;2.55;1.80;;;14.70;99.90;;;;;;5093419;28;20047;-82
2023/10/05 08:28:50;;;;;;;3.03;0.43;;;14.80;99.90;;;;;;5073222;28;20396;-83
2023/10/05 08:31:22;;;;;;;1.17;0.30;;;14.70;99.90;;;;;;5093275;28;20082;-82
2023/10/05 08:33:54;;;;;;;2.30;0.40;;;14.90;99.90;;;;;;5074792;28;20130;-82
2023/10/05 08:36:21;;;;;;;1.65;0.50;;;14.70;99.90;;;;;;5093322;28;20445;-82
2023/10/05 08:38:50;;;;;;;2.85;0.75;;;14.80;99.90;;;;;;5091381;28;20044;-82
2023/10/05 08:41:39;;;;;;;4.00;0.57;;;14.80;99.90;;;;;;5061912;28;20043;-83
2023/10/05 08:44:17;;;;;;;2.28;0.60;;;14.80;99.90;;;;;;5055009;28;20052;-82
2023/10/05 08:46:43;;;;;;;2.13;0.45;;;14.90;99.90;;;;;;5072720;28;20040;-82
2023/10/05 08:49:13;;;;;;;3.78;0.60;;;15.10;99.90;;;;;;5055917;28;20500;-82
2023/10/05 08:51:40;;;;;;;2.17;0.50;;;14.90;99.90;;;;;;5072821;28;20394;-82
2023/10/05 08:54:13;;;;;;;8.05;0.63;;;14.90;99.90;;;;;;5054607;28;20130;-83
2023/10/05 08:56:47;;;;;;;4.82;0.70;;;15.00;99.90;;;;;;5054711;28;20051;-82
2023/10/05 08:59:13;;;;;;;1.83;0.50;;;15.10;99.90;;;;;;5073685;28;20041;-82
2023/10/05 09:01:42;;;;;;;1.17;0.60;;;15.20;99.90;;;;;;5072629;28;20040;-82
2023/10/05 09:07:08;;;;;;;1.77;0.68;;;15.50;99.90;;;;;;5072363;28;20400;-82
2023/10/05 09:09:52;;;;;;;2.33;0.98;;;15.60;99.90;;;;;;5073500;28;20041;-83
2023/10/05 09:12:34;;;;;;;6.05;1.25;;;15.70;99.90;;;;;;5072624;28;20044;-82
2023/10/05 09:17:58;;;;;;;3.28;1.98;;;15.90;99.90;;;;;;5072193;28;20131;-82
2023/10/05 09:20:32;;;;;;;5.55;2.47;;;16.00;99.90;;;;;;5082833;28;20127;-82
2023/10/05 09:23:09;;;;;;;3.83;2.88;;;16.10;99.90;;;;;;5074036;28;20415;-82
2023/10/05 09:25:45;;;;;;;6.32;1.20;;;16.00;99.90;;;;;;5076227;28;20578;-82
2023/10/05 09:28:16;;;;;;;6.57;1.88;;;16.10;99.90;;;;;;5096538;28;20094;-82
2023/10/05 09:30:55;;;;;;;18.63;17.33;;;16.00;99.90;;;;;;5094577;28;20078;-82
2023/10/05 09:33:24;;;;;;;6.18;4.35;;;16.00;99.90;;;;;;5096205;28;20118;-82
2023/10/05 09:35:50;;;;;;;38.10;35.60;;;16.00;99.90;;;;;;5096326;28;20040;-82
2023/10/05 09:38:19;;;;;;;27.20;25.55;;;16.00;99.90;;;;;;5096326;28;20044;-82
2023/10/05 09:40:47;;;;;;;28.35;26.40;;;16.10;99.90;;;;;;5080406;28;20048;-82
2023/10/05 09:43:18;;;;;;;29.48;27.52;;;16.20;99.90;;;;;;5058544;28;20040;-82
2023/10/05 09:45:48;;;;;;;5.57;5.10;;;16.30;99.90;;;;;;5057833;28;20044;-82
2023/10/05 09:48:16;;;;;;;8.60;7.93;;;16.30;99.90;;;;;;5076167;28;20083;-82
2023/10/05 09:50:43;;;;;;;6.10;5.47;;;16.40;99.90;;;;;;5075914;28;20045;-83
2023/10/05 09:53:11;;;;;;;42.33;39.42;;;16.40;99.90;;;;;;5059383;28;20098;-82
2023/10/05 09:55:40;;;;;;;6.13;5.50;;;16.50;99.90;;;;;;5057755;28;20052;-82
2023/10/05 09:58:12;;;;;;;12.07;6.00;;;16.50;99.90;;;;;;5058083;28;20052;-82
2023/10/05 10:03:05;;;;;;;22.92;21.25;;;16.60;99.90;;;;;;5058767;28;20106;-82
2023/10/05 10:05:43;;;;;;;18.13;16.23;;;16.60;99.90;;;;;;5075524;28;20097;-83
2023/10/05 10:08:14;;;;;;;37.17;34.67;;;16.60;99.90;;;;;;5075757;28;20086;-82
2023/10/05 10:10:51;;;;;;;51.80;48.10;;;16.50;99.90;;;;;;5075736;28;20401;-83
2023/10/05 10:13:21;;;;;;;76.20;70.72;;;16.50;99.90;;;;;;5076580;28;20070;-79
2023/10/05 10:15:53;;;;;;;24.27;22.83;;;16.40;99.90;;;;;;5075254;28;20378;-84
2023/10/05 10:18:30;;;;;;;43.20;40.47;;;16.40;99.90;;;;;;5079809;28;20123;-80
2023/10/05 10:20:57;;;;;;;161.48;149.80;;;16.40;99.90;;;;;;5075579;28;20040;-85
2023/10/05 10:23:27;;;;;;;61.53;57.65;;;16.30;99.90;;;;;;5056652;28;20079;-83
2023/10/05 10:26:17;;;;;;;58.55;54.70;;;16.30;99.90;;;;;;5055958;28;20036;-84
2023/10/05 10:31:30;;;;;;;287.85;268.77;;;16.30;99.90;;;;;;5055053;28;20053;-84
2023/10/05 10:34:08;;;;;;;75.53;70.95;;;16.30;99.90;;;;;;5042273;28;20032;-84
2023/10/05 10:36:52;;;;;;;80.93;76.25;;;16.30;99.90;;;;;;5073772;28;20040;-85
2023/10/05 10:39:23;;;;;;;156.32;144.90;;;16.20;99.90;;;;;;5039822;28;20127;-85
2023/10/05 10:42:19;;;;;;;76.30;72.00;;;16.20;99.90;;;;;;5074866;28;20555;-85
2023/10/05 10:47:17;;;;;;;439.25;410.98;;;16.00;99.90;;;;;;5053304;28;20156;-85
2023/10/05 10:50:15;;;;;;;192.23;182.23;;;16.00;99.90;;;;;;5058946;28;20029;-85
2023/10/05 10:52:43;;;;;;;441.85;413.77;;;15.90;99.90;;;;;;5041541;28;20167;-86
2023/10/05 10:55:15;;;;;;;167.77;158.77;;;15.80;99.90;;;;;;5053803;28;20086;-88
2023/10/05 10:57:53;;;;;;;437.25;409.48;;;15.70;99.90;;;;;;5056707;28;20037;-81
2023/10/05 11:03:15;;;;;;;556.13;520.17;;;15.50;99.90;;;;;;5055723;28;20055;-86
2023/10/05 11:05:43;;;;;;;;;;;15.70;99.90;;;;;;5046681;28;20116;-85
2023/10/05 11:08:12;;;;;;;403.92;367.35;;;15.80;99.90;;;;;;5051048;28;19927;-85
2023/10/05 11:10:40;;;;;;;667.38;617.63;;;15.80;99.90;;;;;;5072348;28;20040;-86
2023/10/05 11:13:14;;;;;;;660.92;612.53;;;15.80;99.90;;;;;;5056700;28;20056;-86
2023/10/05 11:16:09;;;;;;;385.45;355.27;;;15.70;99.90;;;;;;5073903;28;20099;-86
2023/10/05 11:18:39;;;;;;;671.05;617.38;;;15.70;99.90;;;;;;5053730;28;20092;-86
2023/10/05 11:21:16;;;;;;;421.70;381.23;;;15.80;99.90;;;;;;5067611;28;20053;-85
2023/10/05 11:23:55;;;;;;;678.25;622.78;;;15.90;99.90;;;;;;5071704;28;20059;-85
2023/10/05 11:28:56;;;;;;;688.55;630.15;;;16.10;99.90;;;;;;5094218;28;20048;-85
2023/10/05 11:31:26;;;;;;;431.08;388.30;;;16.20;99.90;;;;;;5094249;28;20412;-85
2023/10/05 11:34:00;;;;;;;686.63;630.63;;;16.20;99.90;;;;;;5059325;28;20154;-85
2023/10/05 11:36:39;;;;;;;418.17;379.45;;;16.30;99.90;;;;;;5059195;28;20068;-85
2023/10/05 11:39:22;;;;;;;416.38;377.38;;;16.40;99.90;;;;;;5075521;28;20055;-85
2023/10/05 11:41:48;;;;;;;696.25;640.50;;;16.50;99.90;;;;;;5075610;28;20040;-85
2023/10/05 11:44:23;;;;;;;429.30;387.27;;;16.60;99.90;;;;;;5092200;28;20477;-85
2023/10/05 11:46:53;;;;;;;705.55;647.42;;;16.60;99.90;;;;;;5075454;28;20040;-84
2023/10/05 11:49:20;;;;;;;713.00;649.20;;;16.70;99.90;;;;;;5058607;28;20044;-86
2023/10/05 11:51:59;;;;;;;455.45;405.02;;;16.60;99.90;;;;;;5071329;28;20551;-85
2023/10/05 11:54:25;;;;;;;482.83;415.65;;;16.60;99.90;;;;;;5082583;28;20044;-87
2023/10/05 11:56:53;;;;;;;738.17;670.50;;;16.60;99.90;;;;;;5071840;28;20516;-86
2023/10/05 11:59:29;;;;;;;538.97;430.10;;;16.60;99.90;;;;;;5067865;28;20091;-86
2023/10/05 12:01:55;;;;;;;734.90;657.25;;;16.70;99.90;;;;;;5072254;28;20136;-88
2023/10/05 12:04:23;;;;;;;554.55;438.95;;;16.70;99.90;;;;;;5090475;28;20085;-85
2023/10/05 12:06:59;;;;;;;734.10;658.53;;;16.70;99.90;;;;;;5077701;28;20527;-84
2023/10/05 12:09:32;;;;;;;548.90;436.52;;;16.80;99.90;;;;;;5075426;28;20050;-85
2023/10/05 12:11:59;;;;;;;727.13;653.28;;;17.00;99.90;;;;;;5074758;28;20196;-85
2023/10/05 12:17:51;;;;;;;714.17;646.67;;;17.20;99.90;;;;;;5093540;28;20048;-84
2023/10/05 12:20:18;;;;;;;755.10;674.55;;;17.40;99.90;;;;;;5058099;28;20047;-84
2023/10/05 12:22:45;;;;;;;740.72;662.78;;;17.50;99.90;;;;;;5074633;28;20056;-85
2023/10/05 12:25:14;;;;;;;748.33;671.58;;;17.60;99.90;;;;;;5075259;28;20462;-84
2023/10/05 12:27:40;;;;;;;564.53;441.80;;;17.70;99.90;;;;;;5074552;28;20093;-84
2023/10/05 12:30:11;;;;;;;747.13;670.03;;;17.70;99.90;;;;;;5075221;28;20032;-84
2023/10/05 12:32:40;;;;;;;527.50;441.60;;;17.60;99.90;;;;;;5093441;28;20055;-85
2023/10/05 12:35:13;;;;;;;771.70;692.88;;;17.50;99.90;;;;;;5051560;28;20063;-84
2023/10/05 12:37:46;;;;;;;568.08;452.48;;;17.50;99.90;;;;;;5075119;28;20468;-85
2023/10/05 12:40:17;;;;;;;553.50;442.15;;;17.50;99.90;;;;;;5093193;28;20047;-84
2023/10/05 12:42:53;;;;;;;546.30;442.08;;;17.40;99.90;;;;;;5074891;28;20492;-85
2023/10/05 12:45:22;;;;;;;;;;;17.30;99.90;;;;;;5075408;28;20040;-84
2023/10/05 12:47:53;;;;;;;749.80;673.42;;;17.10;99.90;;;;;;5074352;28;19924;-83
2023/10/05 12:50:20;;;;;;;541.50;438.42;;;16.90;99.90;;;;;;5092908;28;20541;-84
2023/10/05 12:52:50;;;;;;;535.90;437.60;;;16.80;99.90;;;;;;5092848;28;20048;-84
2023/10/05 12:55:19;;;;;;;503.25;433.80;;;16.70;99.90;;;;;;5089521;28;20044;-84
2023/10/05 12:57:50;;;;;;;487.27;424.73;;;16.70;99.90;;;;;;5074648;28;20074;-82
2023/10/05 13:00:20;;;;;;;755.20;686.08;;;16.60;99.90;;;;;;5074449;28;20048;-84
2023/10/05 13:02:55;;;;;;;520.05;440.35;;;16.70;99.90;;;;;;5055938;28;20051;-84
2023/10/05 13:05:29;;;;;;;500.33;437.80;;;16.80;99.90;;;;;;5069193;28;20052;-83
2023/10/05 13:07:56;;;;;;;505.77;440.65;;;16.90;99.90;;;;;;5054856;28;20492;-84
2023/10/05 13:10:26;;;;;;;505.15;440.45;;;17.00;99.90;;;;;;5054515;28;20037;-85
2023/10/05 13:12:52;;;;;;;763.30;690.97;;;17.10;99.90;;;;;;5054125;28;20048;-85
2023/10/05 13:15:24;;;;;;;758.92;687.40;;;17.00;99.90;;;;;;5072474;28;20052;-85
2023/10/05 13:17:55;;;;;;;759.72;689.35;;;17.10;99.90;;;;;;5072009;28;20044;-85
2023/10/05 13:20:25;;;;;;;491.52;434.80;;;17.00;99.90;;;;;;5072464;28;20048;-85
2023/10/05 13:22:53;;;;;;;476.83;426.27;;;17.00;99.90;;;;;;5072343;28;20080;-85
2023/10/05 13:25:26;;;;;;;478.48;428.65;;;17.10;99.90;;;;;;5053720;28;20048;-85
2023/10/05 13:27:52;;;;;;;780.88;708.92;;;17.40;99.90;;;;;;5051888;28;20055;-85
2023/10/05 13:30:27;;;;;;;758.20;692.25;;;17.60;99.90;;;;;;5092269;28;20086;-85
2023/10/05 13:33:08;;;;;;;745.47;687.67;;;17.80;99.90;;;;;;5074033;28;20055;-85